Time;durP1;ratioP1;P1;durP2;ratioP2;P2;SDS_P1;SDS_P2;PMS_P1;PMS_P2;Temp;Humidity;BMP_temperature;BMP_pressure;BME280_temperature;BME280_humidity;BME280_pressure;Samples;Min_cycle;Max_cycle;Signal;HPM_P1;HPM_P2
2021/11/12 00:02:40;;;;;;;50.90;19.13;;;;;;;4.50;62.87;99327.47;4934242;29;20453;-80
2021/11/12 00:13:27;;;;;;;54.03;18.85;;;;;;;4.59;62.16;99328.53;4917611;29;20052;-82
2021/11/12 00:15:57;;;;;;;50.13;18.48;;;;;;;4.48;62.35;99306.09;4919023;29;20486;-82
2021/11/12 00:18:27;;;;;;;53.47;20.23;;;;;;;4.61;62.85;99318.25;4919115;29;20130;-81
2021/11/12 00:20:54;;;;;;;59.67;19.23;;;;;;;4.60;62.39;99324.75;4926463;29;20078;-81
2021/11/12 00:23:21;;;;;;;66.35;21.10;;;;;;;4.52;62.50;99298.22;4919591;29;20039;-82
2021/11/12 00:25:50;;;;;;;54.60;19.77;;;;;;;4.67;62.39;99303.63;4918776;29;20561;-80
2021/11/12 00:28:19;;;;;;;61.30;20.25;;;;;;;4.60;62.34;99305.81;4918975;29;20052;-83
2021/11/12 00:30:57;;;;;;;63.33;19.80;;;;;;;4.50;62.45;99294.16;4923397;29;20417;-80
2021/11/12 00:33:51;;;;;;;62.22;21.10;;;;;;;4.45;63.25;99287.69;4926617;29;20036;-80
2021/11/12 00:38:51;;;;;;;58.30;21.77;;;;;;;4.16;63.78;99252.25;4935364;29;20048;-82
2021/11/12 00:41:37;;;;;;;54.47;20.45;;;;;;;4.23;63.79;99270.94;4936923;29;20048;-82
2021/11/12 00:46:51;;;;;;;68.45;21.33;;;;;;;4.06;64.21;99227.94;4937479;29;20130;-82
2021/11/12 00:49:21;;;;;;;48.30;18.63;;;;;;;4.12;64.55;99243.09;4936172;29;20054;-82
2021/11/12 00:51:51;;;;;;;59.28;19.92;;;;;;;4.05;64.19;99218.22;4935659;29;20523;-81
2021/11/12 00:54:18;;;;;;;59.55;20.25;;;;;;;4.10;64.63;99228.19;4936032;29;20056;-82
2021/11/12 00:56:51;;;;;;;55.10;19.30;;;;;;;4.05;64.66;99214.69;4937632;29;20040;-82
2021/11/12 00:59:20;;;;;;;57.65;19.92;;;;;;;4.10;64.42;99214.66;4937032;29;20043;-81
2021/11/12 01:01:47;;;;;;;52.88;19.45;;;;;;;4.10;64.39;99206.56;4937532;29;20051;-82
2021/11/12 01:04:18;;;;;;;57.83;21.85;;;;;;;4.06;64.21;99200.06;4932240;29;20450;-82
2021/11/12 01:06:45;;;;;;;55.83;19.80;;;;;;;4.07;64.34;99198.97;4938029;29;20078;-81
2021/11/12 01:09:13;;;;;;;54.77;19.93;;;;;;;3.91;63.93;99157.66;4938042;29;20043;-81
2021/11/12 01:11:46;;;;;;;60.53;19.60;;;;;;;3.98;63.97;99188.72;4936753;29;20661;-81
2021/11/12 01:14:16;;;;;;;69.95;21.65;;;;;;;3.99;63.70;99201.16;4932462;29;20449;-82
2021/11/12 01:16:46;;;;;;;67.45;20.73;;;;;;;3.89;63.73;99166.03;4920637;29;20502;-82
2021/11/12 01:19:12;;;;;;;66.82;21.30;;;;;;;3.99;63.43;99166.00;4920705;29;20050;-82
2021/11/12 01:21:39;;;;;;;57.77;20.27;;;;;;;3.94;63.99;99166.03;4927941;29;20040;-80
2021/11/12 01:24:06;;;;;;;62.10;19.23;;;;;;;3.84;64.41;99166.03;4932878;29;20075;-81
2021/11/12 01:26:33;;;;;;;60.08;20.58;;;;;;;3.79;64.90;99160.63;4939006;29;20453;-82
2021/11/12 01:29:00;;;;;;;58.95;20.02;;;;;;;3.64;65.12;99156.06;4941820;29;20044;-81
2021/11/12 01:31:29;;;;;;;56.92;20.10;;;;;;;3.47;65.16;99136.59;4937697;29;20040;-82
2021/11/12 01:34:00;;;;;;;53.00;19.25;;;;;;;3.54;65.48;99145.22;4917875;29;20051;-81
2021/11/12 01:36:31;;;;;;;63.30;20.00;;;;;;;3.61;65.17;99147.66;4931899;29;20047;-81
2021/11/12 01:39:01;;;;;;;52.50;19.25;;;;;;;3.61;65.35;99131.44;4937370;29;20076;-81
2021/11/12 01:41:30;;;;;;;48.92;17.50;;;;;;;3.58;65.10;99118.50;4937011;29;20035;-82
2021/11/12 01:43:57;;;;;;;48.55;17.50;;;;;;;3.46;65.32;99130.38;4923462;29;20051;-81
2021/11/12 01:46:38;;;;;;;52.10;17.35;;;;;;;3.29;65.38;99110.94;4937178;29;20383;-81
2021/11/12 01:54:41;;;;;;;43.85;13.13;;;;;;;3.33;64.85;99128.22;4896644;29;20044;-82
2021/11/12 01:59:52;;;;;;;39.95;16.08;;;;;;;3.38;64.78;99106.63;4880863;29;19924;-80
2021/11/12 02:02:18;;;;;;;41.60;16.88;;;;;;;3.37;64.66;99099.56;4885273;29;20056;-81
2021/11/12 02:04:45;;;;;;;45.50;16.17;;;;;;;3.18;64.35;99060.66;4886955;29;20060;-81
2021/11/12 02:07:12;;;;;;;41.55;15.73;;;;;;;3.23;64.13;99066.88;4878566;29;20460;-81
2021/11/12 02:09:38;;;;;;;50.63;15.73;;;;;;;3.19;64.32;99067.72;4895965;29;20048;-81
2021/11/12 02:12:34;;;;;;;55.50;16.63;;;;;;;3.14;64.15;99073.91;4879846;29;20041;-80
2021/11/12 02:14:59;;;;;;;50.33;16.83;;;;;;;3.13;64.72;99069.59;4895172;29;20087;-80
2021/11/12 02:17:32;;;;;;;40.15;13.57;;;;;;;3.19;64.30;99078.50;4889101;29;20074;-80
2021/11/12 02:20:10;;;;;;;39.63;15.77;;;;;;;3.17;64.11;99073.38;4877571;29;20550;-80
2021/11/12 02:22:37;;;;;;;44.67;17.27;;;;;;;3.21;64.64;99062.84;4888418;29;20293;-80
2021/11/12 02:25:09;;;;;;;51.67;17.02;;;;;;;3.10;64.75;99035.03;4878195;29;20703;-80
2021/11/12 02:27:44;;;;;;;41.95;14.93;;;;;;;3.19;64.50;99051.50;4880828;29;20044;-80
2021/11/12 02:30:18;;;;;;;46.28;16.92;;;;;;;3.17;65.28;99038.25;4894632;29;20485;-80
2021/11/12 02:33:04;;;;;;;50.58;17.58;;;;;;;3.25;65.57;99026.91;4935483;29;20043;-81
2021/11/12 02:35:32;;;;;;;46.45;17.58;;;;;;;3.19;65.60;99019.09;4928453;29;20046;-80
2021/11/12 02:38:02;;;;;;;47.75;18.45;;;;;;;3.15;66.00;99016.13;4924638;29;20048;-80
2021/11/12 02:40:34;;;;;;;48.35;16.15;;;;;;;3.03;66.01;99027.19;4923790;29;20508;-80
2021/11/12 02:43:02;;;;;;;49.65;16.40;;;;;;;3.06;66.30;99018.56;4934780;29;20102;-81
2021/11/12 02:45:29;;;;;;;48.42;17.98;;;;;;;2.97;66.63;98997.75;4932458;29;20075;-81
2021/11/12 02:47:57;;;;;;;45.97;17.08;;;;;;;3.05;66.86;99005.34;4918755;29;20099;-81
2021/11/12 02:50:24;;;;;;;53.70;18.33;;;;;;;2.89;67.45;98985.63;4935105;29;20043;-81
2021/11/12 02:52:59;;;;;;;47.80;17.40;;;;;;;2.69;67.99;98969.44;4934271;29;20040;-84
2021/11/12 02:55:28;;;;;;;57.78;17.15;;;;;;;2.83;69.04;99003.69;4935603;29;20090;-80
2021/11/12 02:57:55;;;;;;;52.80;17.52;;;;;;;2.72;69.65;99010.19;4917623;29;20528;-81
2021/11/12 03:00:25;;;;;;;44.42;18.85;;;;;;;2.70;70.30;99008.81;4928868;29;20039;-80
2021/11/12 03:02:53;;;;;;;57.78;20.30;;;;;;;2.75;70.47;99000.75;4934236;29;20042;-81
2021/11/12 03:05:19;;;;;;;48.65;20.00;;;;;;;2.80;70.43;98989.94;4935065;29;20402;-80
2021/11/12 03:07:46;;;;;;;54.60;19.80;;;;;;;2.79;70.41;98991.84;4933302;29;20530;-80
2021/11/12 03:10:14;;;;;;;55.38;19.95;;;;;;;2.68;70.47;98959.69;4934850;29;20505;-81
2021/11/12 03:12:44;;;;;;;54.65;19.85;;;;;;;2.80;70.07;98977.25;4934978;29;20044;-82
2021/11/12 03:15:11;;;;;;;54.58;19.50;;;;;;;2.82;70.36;98974.28;4934174;29;20075;-80
2021/11/12 03:17:38;;;;;;;48.53;18.15;;;;;;;2.72;70.53;98974.28;4929525;29;20044;-80
2021/11/12 03:20:07;;;;;;;54.03;19.90;;;;;;;2.72;70.93;98975.09;4918323;29;20055;-80
2021/11/12 03:22:39;;;;;;;48.42;19.60;;;;;;;2.72;70.99;98975.09;4934856;29;20148;-80
2021/11/12 03:25:11;;;;;;;60.97;20.50;;;;;;;2.59;71.63;98948.66;4948896;29;20048;-82
2021/11/12 03:27:49;;;;;;;67.22;22.80;;;;;;;2.58;72.02;98944.31;4949204;29;20546;-79
2021/11/12 04:06:35;;;;;;;64.32;23.27;;;;;;;2.62;72.84;98847.47;4934606;29;20044;-81
2021/11/12 04:50:01;;;;;;;63.67;21.25;;;;;;;2.25;73.56;98743.38;4938005;29;20421;-86
2021/11/12 05:50:33;;;;;;;65.82;22.63;;;;;;;2.07;75.55;98640.44;4936330;29;20515;-76
2021/11/12 05:55:47;;;;;;;71.18;21.42;;;;;;;2.07;76.15;98618.88;4936331;29;20046;-78
2021/11/12 05:58:13;;;;;;;79.55;25.40;;;;;;;2.15;76.17;98620.19;4936070;29;20047;-80
2021/11/12 06:00:39;;;;;;;88.07;27.55;;;;;;;2.14;76.29;98613.19;4936087;29;20532;-81
2021/11/12 06:03:05;;;;;;;71.22;22.45;;;;;;;2.05;75.99;98606.72;4936460;29;20048;-83
2021/11/12 06:05:32;;;;;;;68.90;23.13;;;;;;;1.98;76.62;98604.31;4936213;29;20136;-83
2021/11/12 06:07:58;;;;;;;76.30;23.65;;;;;;;2.01;76.77;98614.56;4936236;29;20051;-83
2021/11/12 06:10:25;;;;;;;94.25;26.13;;;;;;;1.98;76.92;98608.91;4935807;29;20528;-79
2021/11/12 06:12:51;;;;;;;73.60;21.95;;;;;;;1.97;76.82;98618.09;4934949;29;20048;-79
2021/11/12 06:15:18;;;;;;;;;;;;;;;2.06;77.06;98622.66;4935592;29;20043;-80
2021/11/12 06:17:45;;;;;;;84.18;25.67;;;;;;;2.11;77.04;98613.72;4935083;29;20092;-77
2021/11/12 06:20:13;;;;;;;75.60;24.52;;;;;;;1.99;76.63;98597.06;4936746;29;20047;-81
2021/11/12 06:22:39;;;;;;;80.07;26.33;;;;;;;2.01;77.35;98590.31;4937055;29;20052;-81
2021/11/12 06:25:05;;;;;;;64.05;20.08;;;;;;;2.05;76.80;98606.72;4936800;29;20062;-82
2021/11/12 06:27:31;;;;;;;71.70;22.63;;;;;;;2.02;77.04;98607.28;4934412;29;20055;-82
2021/11/12 06:29:58;;;;;;;91.78;27.63;;;;;;;2.02;77.06;98589.25;4936367;29;20669;-81
2021/11/12 06:32:24;;;;;;;80.95;25.08;;;;;;;2.05;76.73;98564.44;4935769;29;20040;-81
2021/11/12 06:34:51;;;;;;;76.22;24.83;;;;;;;2.17;76.73;98588.38;4936463;29;20055;-83
2021/11/12 06:37:17;;;;;;;42.63;15.02;;;;;;;2.07;76.76;98586.50;4934592;29;20048;-84
2021/11/12 06:39:44;;;;;;;84.50;27.15;;;;;;;2.13;77.11;98581.13;4935648;29;20465;-82
2021/11/12 06:42:22;;;;;;;87.20;26.25;;;;;;;2.06;77.27;98573.31;4935847;29;20421;-83
2021/11/12 06:50:13;;;;;;;85.15;28.17;;;;;;;1.80;77.30;98511.44;4935409;29;20067;-83
2021/11/12 06:52:42;;;;;;;81.47;25.50;;;;;;;2.11;77.23;98560.63;4935359;29;20052;-84
2021/11/12 06:55:11;;;;;;;85.20;27.98;;;;;;;2.25;77.10;98565.41;4935724;29;20075;-81
2021/11/12 06:57:38;;;;;;;84.30;27.75;;;;;;;1.92;77.09;98513.81;4936599;29;20157;-84
2021/11/12 07:00:13;;;;;;;78.68;25.42;;;;;;;2.18;77.37;98563.00;4934532;29;20089;-83
2021/11/12 07:02:42;;;;;;;77.22;24.75;;;;;;;2.25;77.56;98571.63;4945819;29;20044;-84
2021/11/12 07:05:09;;;;;;;86.30;25.98;;;;;;;2.25;77.31;98573.50;4914543;29;20040;-83
2021/11/12 07:07:39;;;;;;;81.67;25.33;;;;;;;2.04;77.06;98533.16;4916284;29;20107;-83
2021/11/12 07:10:07;;;;;;;63.95;21.98;;;;;;;2.27;77.13;98557.84;4899411;29;20418;-82
2021/11/12 07:12:33;;;;;;;85.90;27.98;;;;;;;2.40;77.14;98557.25;4921745;29;20047;-83
2021/11/12 07:14:59;;;;;;;70.60;21.67;;;;;;;2.39;76.73;98542.16;4953611;29;20134;-84
2021/11/12 07:17:26;;;;;;;69.25;24.73;;;;;;;2.15;76.94;98506.94;4956483;29;20038;-84
2021/11/12 07:19:52;;;;;;;78.70;25.73;;;;;;;2.26;76.74;98524.69;4971363;29;20134;-82
2021/11/12 07:22:19;;;;;;;69.45;23.35;;;;;;;2.45;76.56;98545.63;4967990;28;20047;-85
2021/11/12 07:24:45;;;;;;;69.07;22.80;;;;;;;1.92;76.51;98472.56;4958201;28;20054;-83
2021/11/12 07:27:13;;;;;;;69.13;24.37;;;;;;;2.40;76.76;98524.88;4955358;28;20106;-83
2021/11/12 07:29:42;;;;;;;53.05;17.67;;;;;;;2.40;76.72;98527.59;4952860;29;20107;-84
2021/11/12 07:32:12;;;;;;;64.35;22.67;;;;;;;2.08;76.78;98463.31;4953317;29;20505;-83
2021/11/12 07:34:39;;;;;;;68.18;23.17;;;;;;;2.39;76.86;98499.00;4953987;28;20054;-83
2021/11/12 07:37:11;;;;;;;52.00;18.95;;;;;;;2.14;76.99;98461.41;4955213;29;20134;-84
2021/11/12 07:47:29;;;;;;;59.93;22.03;;;;;;;2.59;77.01;98493.47;4977927;28;20019;-84
2021/11/12 07:49:59;;;;;;;49.60;19.50;;;;;;;2.54;76.94;98479.22;4977753;28;20282;-84
2021/11/12 07:52:30;;;;;;;49.28;18.70;;;;;;;2.39;76.92;98455.06;4947472;29;20051;-82
2021/11/12 07:55:00;;;;;;;45.22;17.40;;;;;;;2.13;77.06;98417.47;4956883;28;20425;-83
2021/11/12 07:57:27;;;;;;;49.95;19.27;;;;;;;2.45;77.15;98456.59;4938436;29;20520;-82
2021/11/12 07:59:53;;;;;;;51.45;18.70;;;;;;;2.52;77.21;98467.91;4956045;28;20058;-83
2021/11/12 08:02:19;;;;;;;45.80;18.52;;;;;;;2.30;77.29;98434.06;4953899;29;20047;-83
2021/11/12 08:04:48;;;;;;;54.83;20.25;;;;;;;2.57;77.10;98463.25;4953596;28;20082;-82
2021/11/12 08:07:15;;;;;;;54.70;19.95;;;;;;;2.61;77.14;98465.41;4955504;28;20082;-83
2021/11/12 08:12:15;;;;;;;56.60;18.25;;;;;;;2.64;77.11;98459.44;4953465;28;20047;-83
2021/11/12 08:17:33;;;;;;;55.30;19.38;;;;;;;2.61;77.30;98457.31;4953760;28;20051;-81
2021/11/12 08:20:10;;;;;;;63.65;19.20;;;;;;;2.56;77.37;98440.09;4953671;28;20047;-81
2021/11/12 08:23:00;;;;;;;58.53;19.90;;;;;;;2.65;77.55;98453.78;4953711;28;20142;-81
2021/11/12 08:28:13;;;;;;;54.70;21.13;;;;;;;2.47;77.59;98420.19;4954384;29;20066;-81
2021/11/12 08:38:17;;;;;;;51.90;18.17;;;;;;;2.44;77.79;98406.47;4955683;29;20421;-83
2021/11/12 08:48:36;;;;;;;66.28;25.77;;;;;;;2.76;78.14;98406.72;4955686;29;20126;-87
2021/11/12 08:51:06;;;;;;;59.13;20.25;;;;;;;2.61;77.98;98373.66;4949265;28;20454;-89
2021/11/12 08:53:34;;;;;;;76.70;26.58;;;;;;;2.86;78.29;98421.22;4927502;29;20040;-85
2021/11/12 08:56:00;;;;;;;86.75;26.88;;;;;;;2.83;78.31;98406.41;4921353;29;20044;-85
2021/11/12 08:58:26;;;;;;;65.72;22.63;;;;;;;2.86;78.29;98413.13;4930379;29;20527;-82
2021/11/12 09:00:52;;;;;;;68.50;24.75;;;;;;;2.90;78.38;98406.84;4919583;29;20127;-84
2021/11/12 09:03:21;;;;;;;68.50;25.70;;;;;;;3.02;78.08;98404.59;4936002;29;20062;-82
2021/11/12 09:05:47;;;;;;;63.45;24.35;;;;;;;2.96;77.96;98389.53;4933986;29;20130;-85
2021/11/12 09:08:13;;;;;;;56.50;22.20;;;;;;;3.15;77.99;98403.09;4931272;29;20573;-84
2021/11/12 09:10:39;;;;;;;62.97;23.17;;;;;;;3.08;78.08;98385.63;4936487;29;20043;-81
2021/11/12 09:13:29;;;;;;;68.75;23.23;;;;;;;2.95;78.17;98366.34;4935845;29;20086;-82
2021/11/12 09:16:00;;;;;;;65.85;21.48;;;;;;;3.21;78.39;98401.13;4935257;29;20563;-85
2021/11/12 09:18:27;;;;;;;65.57;22.95;;;;;;;3.15;78.34;98386.09;4934483;29;20532;-84
2021/11/12 09:20:53;;;;;;;56.85;19.48;;;;;;;3.30;78.34;98402.13;4912312;29;21053;-83
2021/11/12 09:23:20;;;;;;;58.05;20.65;;;;;;;3.32;78.35;98402.66;4915416;29;20055;-83
2021/11/12 09:25:46;;;;;;;48.13;16.90;;;;;;;3.39;78.06;98395.00;4888668;29;20040;-87
2021/11/12 09:28:14;;;;;;;34.92;15.20;;;;;;;3.35;78.20;98406.69;4915082;29;20047;-85
2021/11/12 09:30:41;;;;;;;42.25;15.43;;;;;;;3.16;78.45;98376.91;4914731;29;20044;-86
2021/11/12 09:33:09;;;;;;;59.15;21.35;;;;;;;3.19;78.54;98369.03;4914471;29;20052;-84
2021/11/12 09:35:36;;;;;;;55.33;20.50;;;;;;;3.30;78.33;98391.31;4914616;29;20055;-88
2021/11/12 09:38:02;;;;;;;59.63;21.20;;;;;;;3.26;78.62;98382.19;4923806;29;20147;-84
2021/11/12 09:40:29;;;;;;;57.25;19.85;;;;;;;3.17;78.65;98367.69;4932803;29;20044;-85
2021/11/12 09:42:58;;;;;;;56.65;19.67;;;;;;;3.46;78.71;98402.75;4931619;29;20039;-84
2021/11/12 09:45:24;;;;;;;58.92;20.35;;;;;;;3.42;78.40;98378.22;4933105;29;20043;-84
2021/11/12 09:47:52;;;;;;;36.85;15.25;;;;;;;3.56;78.30;98399.13;4917121;29;20529;-83
2021/11/12 09:50:23;;;;;;;65.20;23.65;;;;;;;3.37;78.46;98356.66;4917311;29;20052;-84
2021/11/12 09:52:49;;;;;;;69.70;23.75;;;;;;;3.69;78.23;98407.31;4918371;29;20064;-84
2021/11/12 09:55:16;;;;;;;62.15;22.17;;;;;;;3.84;78.06;98411.75;4918541;29;20054;-81
2021/11/12 09:57:43;;;;;;;64.03;19.80;;;;;;;3.72;77.99;98387.03;4928978;29;20048;-87
2021/11/12 10:00:16;;;;;;;54.50;18.13;;;;;;;3.98;77.44;98417.22;4936686;29;20047;-86
2021/11/12 10:02:45;;;;;;;60.90;21.05;;;;;;;4.00;77.46;98394.19;4933303;29;20041;-85
2021/11/12 10:05:13;;;;;;;61.25;20.42;;;;;;;4.00;77.52;98396.88;4935159;29;20466;-86
2021/11/12 10:07:41;;;;;;;63.97;22.60;;;;;;;4.11;77.65;98400.28;4934446;29;20575;-84
2021/11/12 10:10:16;;;;;;;67.78;21.08;;;;;;;4.08;77.56;98406.25;4915939;29;20059;-83
2021/11/12 10:12:46;;;;;;;65.13;21.88;;;;;;;4.15;77.42;98403.19;4916789;29;20071;-76
2021/11/12 10:15:20;;;;;;;51.90;20.00;;;;;;;4.09;77.28;98397.03;4916624;29;20514;-80
2021/11/12 10:17:49;;;;;;;66.43;20.88;;;;;;;4.17;77.39;98399.09;4916852;29;20059;-79
2021/11/12 10:22:43;;;;;;;54.63;18.33;;;;;;;4.19;77.50;98402.31;4916683;29;20462;-84
2021/11/12 10:25:10;;;;;;;50.45;18.50;;;;;;;4.26;77.45;98411.97;4917109;29;20044;-83
2021/11/12 10:27:46;;;;;;;52.75;17.70;;;;;;;4.22;77.69;98407.13;4921978;29;20050;-81
2021/11/12 10:30:22;;;;;;;45.25;17.52;;;;;;;4.11;77.83;98384.03;4935260;29;20103;-79
2021/11/12 10:32:54;;;;;;;46.03;17.98;;;;;;;4.32;77.46;98405.38;4930886;29;20059;-79
2021/11/12 10:35:24;;;;;;;54.42;20.67;;;;;;;4.47;77.11;98407.84;4924979;29;20036;-81
2021/11/12 10:37:51;;;;;;;47.40;17.63;;;;;;;4.43;77.30;98414.94;4933219;29;20096;-83
2021/11/12 10:40:21;;;;;;;56.85;19.50;;;;;;;4.42;77.40;98411.44;4934957;29;20044;-81
2021/11/12 10:42:53;;;;;;;54.72;19.42;;;;;;;4.40;77.58;98408.22;4917756;29;20032;-79
2021/11/12 10:45:23;;;;;;;45.80;17.75;;;;;;;4.38;77.59;98396.88;4915485;29;20043;-79
2021/11/12 10:48:02;;;;;;;46.38;16.90;;;;;;;4.58;77.31;98413.91;4933631;29;20084;-80
2021/11/12 10:50:30;;;;;;;53.58;19.70;;;;;;;4.59;77.66;98412.78;4934044;29;20051;-77
2021/11/12 10:53:16;;;;;;;54.78;19.80;;;;;;;4.66;77.42;98414.00;4934736;29;20048;-84
2021/11/12 10:55:45;;;;;;;45.07;17.57;;;;;;;4.67;77.04;98406.72;4934910;29;20091;-79
2021/11/12 10:58:13;;;;;;;42.80;17.80;;;;;;;4.72;77.20;98399.28;4934838;29;20096;-81
2021/11/12 11:00:45;;;;;;;40.85;16.92;;;;;;;4.81;76.65;98402.13;4935244;29;20043;-78
2021/11/12 11:03:14;;;;;;;38.05;16.00;;;;;;;4.88;76.71;98410.66;4933637;29;20408;-82
2021/11/12 11:05:43;;;;;;;29.58;13.15;;;;;;;4.91;76.22;98407.38;4934230;29;20035;-76
2021/11/12 11:08:13;;;;;;;37.63;14.60;;;;;;;5.01;76.56;98417.22;4915497;29;20079;-78
2021/11/12 11:10:45;;;;;;;28.80;12.63;;;;;;;5.03;75.95;98411.50;4915009;29;20048;-79
2021/11/12 11:13:12;;;;;;;41.22;15.98;;;;;;;5.07;76.19;98415.22;4914969;29;20497;-80
2021/11/12 11:15:47;;;;;;;29.35;13.82;;;;;;;5.16;76.09;98413.41;4914727;29;20104;-76
2021/11/12 11:18:20;;;;;;;33.90;13.63;;;;;;;5.16;76.23;98410.69;4913679;29;20055;-77
2021/11/12 11:20:51;;;;;;;21.83;10.75;;;;;;;5.13;76.12;98422.97;4913753;29;20055;-80
2021/11/12 11:23:18;;;;;;;34.50;15.43;;;;;;;5.20;75.67;98411.72;4925215;29;20058;-78
2021/11/12 11:25:55;;;;;;;38.20;15.57;;;;;;;5.32;75.61;98412.03;4923557;29;20043;-76
2021/11/12 11:28:21;;;;;;;32.33;13.90;;;;;;;5.34;74.75;98409.03;4916414;29;20090;-75
2021/11/12 11:30:47;;;;;;;28.25;11.60;;;;;;;5.39;74.90;98417.84;4914408;29;20518;-78
2021/11/12 11:33:19;;;;;;;18.27;8.55;;;;;;;5.39;74.15;98403.50;4913872;29;20139;-76
2021/11/12 11:35:48;;;;;;;26.85;11.32;;;;;;;5.44;74.45;98424.28;4913268;29;20068;-76
2021/11/12 11:38:16;;;;;;;27.00;11.23;;;;;;;5.52;74.60;98418.16;4912576;29;20051;-76
2021/11/12 11:40:47;;;;;;;21.55;9.75;;;;;;;5.57;73.75;98423.50;4912691;29;20123;-81
2021/11/12 11:43:15;;;;;;;18.92;8.98;;;;;;;5.63;73.81;98436.63;4912624;29;20048;-80
2021/11/12 11:45:47;;;;;;;27.92;9.55;;;;;;;5.65;73.00;98415.44;4912200;29;20068;-81
2021/11/12 11:48:15;;;;;;;29.80;10.65;;;;;;;5.68;74.00;98424.06;4910822;29;20682;-79
2021/11/12 11:50:51;;;;;;;23.38;10.50;;;;;;;5.67;73.73;98414.34;4911789;29;20100;-76
2021/11/12 11:53:36;;;;;;;22.40;9.95;;;;;;;5.71;73.78;98429.69;4911881;29;20036;-78
2021/11/12 11:56:11;;;;;;;19.55;9.52;;;;;;;5.79;73.38;98426.25;4911422;29;20044;-81
2021/11/12 11:58:40;;;;;;;20.55;9.00;;;;;;;5.81;73.74;98426.78;4925719;29;20514;-80
2021/11/12 12:01:18;;;;;;;20.77;9.50;;;;;;;5.85;73.46;98441.31;4911293;29;20040;-77
2021/11/12 12:03:48;;;;;;;21.38;8.57;;;;;;;5.81;73.41;98421.34;4910693;29;20055;-77
2021/11/12 12:06:19;;;;;;;24.77;9.90;;;;;;;5.80;73.67;98410.81;4910792;29;20127;-77
2021/11/12 12:08:55;;;;;;;20.85;9.45;;;;;;;5.88;72.94;98426.34;4914167;29;20094;-79
2021/11/12 12:11:25;;;;;;;19.50;8.60;;;;;;;5.82;72.84;98433.78;4918970;29;20048;-81
2021/11/12 12:14:17;;;;;;;25.58;9.77;;;;;;;5.84;72.90;98445.16;4920297;29;20086;-81
2021/11/12 12:16:48;;;;;;;21.70;8.38;;;;;;;5.86;72.94;98421.25;4919108;29;20051;-81
2021/11/12 12:19:42;;;;;;;22.23;9.13;;;;;;;5.95;72.68;98444.97;4919411;29;20052;-81
2021/11/12 13:22:52;;;;;;;;;;;;;;;6.30;70.87;98495.75;4913254;29;20040;-81
2021/11/12 13:25:32;;;;;;;18.38;5.30;;;;;;;6.25;71.27;98492.34;4912325;29;20309;-84
2021/11/12 13:28:17;;;;;;;13.52;5.05;;;;;;;6.28;71.44;98499.88;4912621;29;20498;-81
2021/11/12 13:31:00;;;;;;;13.57;4.80;;;;;;;6.29;71.01;98488.75;4911892;29;20136;-77
2021/11/12 13:33:42;;;;;;;18.67;8.23;;;;;;;6.34;71.21;98495.94;4926768;29;20520;-74
2021/11/12 13:36:25;;;;;;;12.50;5.20;;;;;;;6.45;71.82;98493.81;4915788;29;20048;-72
2021/11/12 13:38:55;;;;;;;15.02;6.53;;;;;;;6.52;70.48;98495.00;4915035;29;20048;-75
2021/11/12 13:41:25;;;;;;;16.15;4.30;;;;;;;6.45;70.41;98502.75;4914746;29;20040;-82
2021/11/12 13:43:57;;;;;;;8.32;4.57;;;;;;;6.40;70.12;98500.16;4914261;29;20422;-76
2021/11/12 13:46:23;;;;;;;11.85;4.57;;;;;;;6.29;70.83;98490.63;4910612;29;20486;-82
2021/11/12 13:48:52;;;;;;;17.42;4.55;;;;;;;6.56;69.80;98498.72;4908852;29;20047;-73
2021/11/12 13:51:25;;;;;;;12.27;3.47;;;;;;;6.59;68.34;98516.31;4909786;29;20084;-75
2021/11/12 13:53:52;;;;;;;7.55;2.65;;;;;;;6.54;68.16;98494.69;4914655;29;20070;-81
2021/11/12 13:56:18;;;;;;;5.57;2.45;;;;;;;6.51;67.54;98517.03;4916133;29;20048;-76
2021/11/12 13:58:46;;;;;;;10.23;2.42;;;;;;;6.46;66.85;98519.88;4908929;29;20071;-76
2021/11/12 14:01:23;;;;;;;6.97;2.35;;;;;;;6.39;67.19;98527.59;4910266;29;20075;-79
2021/11/12 14:03:51;;;;;;;5.75;2.15;;;;;;;6.47;66.94;98530.41;4912024;29;20059;-76
2021/11/12 14:06:20;;;;;;;3.72;2.13;;;;;;;6.53;67.44;98521.03;4914943;29;20040;-81
2021/11/12 14:08:49;;;;;;;12.88;2.72;;;;;;;6.45;66.74;98538.03;4910074;29;20142;-76
2021/11/12 14:11:27;;;;;;;9.77;2.85;;;;;;;6.34;67.11;98532.03;4912739;29;20822;-76
2021/11/12 14:13:56;;;;;;;18.38;4.20;;;;;;;6.35;66.45;98530.13;4913309;29;20043;-77
2021/11/12 14:16:41;;;;;;;19.00;4.82;;;;;;;6.45;66.80;98553.53;4907606;29;20399;-77
2021/11/12 14:21:59;;;;;;;16.58;4.53;;;;;;;6.44;66.88;98557.38;4906931;29;20127;-81
2021/11/12 14:27:36;;;;;;;6.78;2.28;;;;;;;6.46;67.09;98558.69;4924688;29;21106;-81
2021/11/12 14:30:41;;;;;;;13.75;2.08;;;;;;;6.44;65.97;98576.38;4923713;29;20607;-76
2021/11/12 14:33:24;;;;;;;7.50;1.95;;;;;;;6.39;65.75;98581.88;4923511;29;20095;-79
2021/11/12 14:38:28;;;;;;;2.35;1.55;;;;;;;6.42;65.44;98624.72;4905463;29;20386;-76
2021/11/12 14:43:49;;;;;;;8.73;2.67;;;;;;;6.64;65.52;98586.00;4905698;29;20040;-75
2021/11/12 14:46:35;;;;;;;8.52;2.83;;;;;;;6.63;66.38;98604.19;4906158;29;20473;-82
2021/11/12 14:51:42;;;;;;;6.18;2.60;;;;;;;6.52;67.39;98613.66;4915724;29;20107;-77
2021/11/12 14:54:11;;;;;;;8.43;2.83;;;;;;;6.39;68.27;98595.47;4914872;29;20597;-74
2021/11/12 14:56:42;;;;;;;3.70;1.60;;;;;;;6.32;67.56;98610.28;4916187;29;20048;-75
2021/11/12 14:59:16;;;;;;;5.88;1.98;;;;;;;6.31;67.89;98605.94;4916119;29;20044;-75
2021/11/12 15:01:43;;;;;;;6.80;1.83;;;;;;;6.28;67.92;98611.97;4916246;29;20059;-77
2021/11/12 15:04:09;;;;;;;4.90;1.90;;;;;;;6.27;67.69;98604.13;4916239;29;20403;-75
2021/11/12 15:06:37;;;;;;;5.45;2.15;;;;;;;6.24;67.75;98612.88;4915766;29;20099;-78
2021/11/12 15:09:07;;;;;;;10.07;2.30;;;;;;;6.32;67.95;98612.16;4915004;29;20172;-75
2021/11/12 15:11:37;;;;;;;5.35;1.73;;;;;;;6.33;67.43;98609.16;4915767;29;20068;-74
2021/11/12 15:14:06;;;;;;;9.60;2.65;;;;;;;6.29;67.73;98612.75;4915777;29;20044;-77
2021/11/12 15:16:35;;;;;;;8.65;2.45;;;;;;;6.38;68.08;98627.25;4914854;29;20040;-76
2021/11/12 15:19:03;;;;;;;10.18;2.40;;;;;;;6.29;69.20;98612.75;4915862;29;20059;-77
2021/11/12 15:21:41;;;;;;;5.93;2.40;;;;;;;6.40;68.44;98613.38;4916077;29;20506;-78
2021/11/12 15:29:25;;;;;;;12.40;2.78;;;;;;;6.31;68.27;98629.56;4924167;29;20118;-77
2021/11/12 15:34:20;;;;;;;12.13;2.40;;;;;;;6.19;68.97;98637.38;4916271;29;20036;-77
2021/11/12 15:36:56;;;;;;;7.20;2.40;;;;;;;6.23;69.11;98635.69;4916506;29;20106;-78
2021/11/12 15:40:27;;;;;;;7.60;2.63;;;;;;;6.27;69.52;98633.97;4916003;29;20048;-77
2021/11/12 15:42:31;;;;;;;4.80;2.10;;;;;;;6.22;68.65;98650.34;4914745;29;20057;-76
2021/11/12 15:47:48;;;;;;;12.48;3.28;;;;;;;6.10;70.06;98642.72;4904604;29;20215;-81
2021/11/12 15:55:25;;;;;;;11.45;3.47;;;;;;;6.03;70.24;98661.31;4915265;29;20179;-76
2021/11/12 16:00:48;;;;;;;10.85;2.92;;;;;;;6.07;69.93;98651.47;4914385;29;20423;-80
2021/11/12 16:03:44;;;;;;;7.03;2.45;;;;;;;6.06;69.78;98663.38;4915499;29;20083;-78
2021/11/12 16:09:23;;;;;;;12.07;2.28;;;;;;;5.99;70.48;98647.50;4915400;29;20048;-78
2021/11/12 16:14:24;;;;;;;10.85;2.58;;;;;;;6.02;70.52;98674.03;4915383;29;20047;-79
2021/11/12 16:20:02;;;;;;;7.05;2.67;;;;;;;6.05;70.41;98673.44;4915597;29;20048;-82
2021/11/12 16:25:16;;;;;;;14.13;3.60;;;;;;;6.07;70.41;98679.38;4915199;29;20044;-81
2021/11/12 16:27:46;;;;;;;10.25;1.90;;;;;;;5.96;70.57;98672.53;4915262;29;20063;-77
2021/11/12 16:30:19;;;;;;;6.72;2.50;;;;;;;6.06;70.74;98683.22;4914206;29;20032;-77
2021/11/12 16:32:51;;;;;;;8.93;2.20;;;;;;;6.14;70.98;98695.28;4915057;29;20048;-82
2021/11/12 16:35:21;;;;;;;5.13;2.78;;;;;;;6.20;71.09;98685.16;4915348;29;20126;-77
2021/11/12 16:37:51;;;;;;;3.75;1.80;;;;;;;6.15;69.91;98713.16;4915311;29;20052;-79
2021/11/12 16:43:00;;;;;;;9.07;1.73;;;;;;;5.95;70.92;98700.75;4915311;29;20055;-78
2021/11/12 16:46:01;;;;;;;8.82;1.92;;;;;;;5.91;71.40;98696.19;4914384;29;20058;-75
2021/11/12 16:48:41;;;;;;;4.05;1.80;;;;;;;5.95;71.86;98702.66;4915643;29;20131;-81
2021/11/12 16:56:42;;;;;;;5.47;2.20;;;;;;;5.88;71.60;98717.38;4917273;29;20044;-79
2021/11/12 16:59:45;;;;;;;5.95;2.33;;;;;;;5.82;71.30;98691.44;4919599;29;20082;-81